sensor_id;sensor_type;location;lat;lon;timestamp;P1;durP1;ratioP1;P2;durP2;ratioP2
7831;SDS011;3961;42.058;25.586;2022-11-20T00:02:17;17.90;;;3.93;;
7831;SDS011;3961;42.058;25.586;2022-11-20T00:04:42;14.57;;;3.90;;
7831;SDS011;3961;42.058;25.586;2022-11-20T00:07:08;17.33;;;4.97;;
7831;SDS011;3961;42.058;25.586;2022-11-20T00:09:33;12.40;;;4.10;;
7831;SDS011;3961;42.058;25.586;2022-11-20T00:11:59;14.63;;;3.97;;
7831;SDS011;3961;42.058;25.586;2022-11-20T00:14:24;16.60;;;4.23;;
7831;SDS011;3961;42.058;25.586;2022-11-20T00:16:50;18.70;;;4.03;;
7831;SDS011;3961;42.058;25.586;2022-11-20T00:19:15;11.93;;;4.03;;
7831;SDS011;3961;42.058;25.586;2022-11-20T00:21:41;12.77;;;3.87;;
7831;SDS011;3961;42.058;25.586;2022-11-20T00:24:08;12.33;;;3.80;;
7831;SDS011;3961;42.058;25.586;2022-11-20T00:26:34;12.80;;;3.77;;
7831;SDS011;3961;42.058;25.586;2022-11-20T00:29:00;16.27;;;4.63;;
7831;SDS011;3961;42.058;25.586;2022-11-20T00:31:26;14.87;;;4.40;;
7831;SDS011;3961;42.058;25.586;2022-11-20T00:33:52;14.00;;;4.30;;
7831;SDS011;3961;42.058;25.586;2022-11-20T00:36:22;19.57;;;4.53;;
7831;SDS011;3961;42.058;25.586;2022-11-20T00:38:52;12.63;;;4.60;;
7831;SDS011;3961;42.058;25.586;2022-11-20T00:41:18;10.47;;;3.50;;
7831;SDS011;3961;42.058;25.586;2022-11-20T00:43:44;13.13;;;3.90;;
7831;SDS011;3961;42.058;25.586;2022-11-20T00:46:13;10.50;;;3.80;;
7831;SDS011;3961;42.058;25.586;2022-11-20T00:48:41;9.67;;;3.20;;
7831;SDS011;3961;42.058;25.586;2022-11-20T00:51:07;12.87;;;3.77;;
7831;SDS011;3961;42.058;25.586;2022-11-20T00:53:33;8.73;;;3.30;;
7831;SDS011;3961;42.058;25.586;2022-11-20T00:56:00;14.87;;;4.13;;
7831;SDS011;3961;42.058;25.586;2022-11-20T00:58:31;14.17;;;3.97;;
7831;SDS011;3961;42.058;25.586;2022-11-20T01:01:06;11.93;;;3.50;;
7831;SDS011;3961;42.058;25.586;2022-11-20T01:03:33;15.93;;;3.90;;
7831;SDS011;3961;42.058;25.586;2022-11-20T01:06:07;16.07;;;3.60;;
7831;SDS011;3961;42.058;25.586;2022-11-20T01:08:43;14.07;;;3.93;;
7831;SDS011;3961;42.058;25.586;2022-11-20T01:11:14;13.80;;;3.40;;
7831;SDS011;3961;42.058;25.586;2022-11-20T01:13:42;16.63;;;3.97;;
7831;SDS011;3961;42.058;25.586;2022-11-20T01:16:10;9.83;;;3.27;;
7831;SDS011;3961;42.058;25.586;2022-11-20T01:18:41;14.43;;;3.77;;
7831;SDS011;3961;42.058;25.586;2022-11-20T01:21:09;14.67;;;4.50;;
7831;SDS011;3961;42.058;25.586;2022-11-20T01:23:38;13.20;;;3.37;;
7831;SDS011;3961;42.058;25.586;2022-11-20T01:26:06;13.90;;;3.80;;
7831;SDS011;3961;42.058;25.586;2022-11-20T01:28:34;13.90;;;3.83;;
7831;SDS011;3961;42.058;25.586;2022-11-20T01:31:00;11.90;;;3.60;;
7831;SDS011;3961;42.058;25.586;2022-11-20T01:33:26;12.53;;;3.73;;
7831;SDS011;3961;42.058;25.586;2022-11-20T01:35:52;15.03;;;3.80;;
7831;SDS011;3961;42.058;25.586;2022-11-20T01:38:18;11.30;;;3.43;;
7831;SDS011;3961;42.058;25.586;2022-11-20T01:40:45;12.70;;;3.43;;
7831;SDS011;3961;42.058;25.586;2022-11-20T01:43:19;8.73;;;3.47;;
7831;SDS011;3961;42.058;25.586;2022-11-20T01:48:33;18.27;;;3.70;;
7831;SDS011;3961;42.058;25.586;2022-11-20T01:51:03;14.10;;;3.40;;
7831;SDS011;3961;42.058;25.586;2022-11-20T01:53:32;16.37;;;3.53;;
7831;SDS011;3961;42.058;25.586;2022-11-20T01:56:01;11.13;;;3.80;;
7831;SDS011;3961;42.058;25.586;2022-11-20T01:58:32;13.80;;;4.00;;
7831;SDS011;3961;42.058;25.586;2022-11-20T02:01:00;15.77;;;4.10;;
7831;SDS011;3961;42.058;25.586;2022-11-20T02:03:27;10.43;;;3.23;;
7831;SDS011;3961;42.058;25.586;2022-11-20T02:08:27;12.60;;;3.37;;
7831;SDS011;3961;42.058;25.586;2022-11-20T02:10:53;20.40;;;3.93;;
7831;SDS011;3961;42.058;25.586;2022-11-20T02:13:19;13.10;;;3.73;;
7831;SDS011;3961;42.058;25.586;2022-11-20T02:16:03;12.43;;;3.63;;
7831;SDS011;3961;42.058;25.586;2022-11-20T02:18:33;15.17;;;3.63;;
7831;SDS011;3961;42.058;25.586;2022-11-20T02:21:00;10.23;;;2.97;;
7831;SDS011;3961;42.058;25.586;2022-11-20T02:26:26;12.30;;;3.67;;
7831;SDS011;3961;42.058;25.586;2022-11-20T02:28:54;13.20;;;3.30;;
7831;SDS011;3961;42.058;25.586;2022-11-20T02:31:20;17.97;;;4.07;;
7831;SDS011;3961;42.058;25.586;2022-11-20T02:33:45;14.93;;;3.50;;
7831;SDS011;3961;42.058;25.586;2022-11-20T02:36:11;11.70;;;3.30;;
7831;SDS011;3961;42.058;25.586;2022-11-20T02:38:41;14.20;;;3.43;;
7831;SDS011;3961;42.058;25.586;2022-11-20T02:41:08;12.17;;;3.60;;
7831;SDS011;3961;42.058;25.586;2022-11-20T02:43:33;17.20;;;3.67;;
7831;SDS011;3961;42.058;25.586;2022-11-20T02:45:59;11.77;;;3.20;;
7831;SDS011;3961;42.058;25.586;2022-11-20T02:48:24;10.87;;;3.67;;
7831;SDS011;3961;42.058;25.586;2022-11-20T02:50:50;14.47;;;3.63;;
7831;SDS011;3961;42.058;25.586;2022-11-20T02:53:15;16.50;;;3.43;;
7831;SDS011;3961;42.058;25.586;2022-11-20T02:55:41;18.00;;;4.33;;
7831;SDS011;3961;42.058;25.586;2022-11-20T02:58:06;15.83;;;4.07;;
7831;SDS011;3961;42.058;25.586;2022-11-20T03:00:32;16.73;;;3.40;;
7831;SDS011;3961;42.058;25.586;2022-11-20T03:02:57;13.43;;;2.87;;
7831;SDS011;3961;42.058;25.586;2022-11-20T03:05:23;15.07;;;3.53;;
7831;SDS011;3961;42.058;25.586;2022-11-20T03:07:48;13.07;;;3.67;;
7831;SDS011;3961;42.058;25.586;2022-11-20T03:10:14;16.47;;;3.70;;
7831;SDS011;3961;42.058;25.586;2022-11-20T03:12:39;13.17;;;3.83;;
7831;SDS011;3961;42.058;25.586;2022-11-20T03:15:05;11.93;;;3.20;;
7831;SDS011;3961;42.058;25.586;2022-11-20T03:17:31;11.60;;;3.17;;
7831;SDS011;3961;42.058;25.586;2022-11-20T03:19:56;13.87;;;3.53;;
7831;SDS011;3961;42.058;25.586;2022-11-20T03:22:22;11.10;;;3.67;;
7831;SDS011;3961;42.058;25.586;2022-11-20T03:24:47;13.47;;;3.27;;
7831;SDS011;3961;42.058;25.586;2022-11-20T03:27:13;11.87;;;3.27;;
7831;SDS011;3961;42.058;25.586;2022-11-20T03:29:38;18.37;;;3.83;;
7831;SDS011;3961;42.058;25.586;2022-11-20T03:32:04;10.13;;;3.40;;
7831;SDS011;3961;42.058;25.586;2022-11-20T03:34:30;11.50;;;2.90;;
7831;SDS011;3961;42.058;25.586;2022-11-20T03:36:55;13.27;;;3.47;;
7831;SDS011;3961;42.058;25.586;2022-11-20T03:39:21;15.30;;;3.80;;
7831;SDS011;3961;42.058;25.586;2022-11-20T03:41:47;10.80;;;3.53;;
7831;SDS011;3961;42.058;25.586;2022-11-20T03:44:12;14.30;;;3.00;;
7831;SDS011;3961;42.058;25.586;2022-11-20T03:46:38;10.23;;;2.70;;
7831;SDS011;3961;42.058;25.586;2022-11-20T03:49:03;11.67;;;3.07;;
7831;SDS011;3961;42.058;25.586;2022-11-20T03:51:30;15.27;;;3.40;;
7831;SDS011;3961;42.058;25.586;2022-11-20T03:53:58;12.63;;;3.03;;
7831;SDS011;3961;42.058;25.586;2022-11-20T03:56:26;12.20;;;3.07;;
7831;SDS011;3961;42.058;25.586;2022-11-20T03:58:56;18.67;;;3.37;;
7831;SDS011;3961;42.058;25.586;2022-11-20T04:01:23;12.93;;;3.23;;
7831;SDS011;3961;42.058;25.586;2022-11-20T04:03:55;10.87;;;3.27;;
7831;SDS011;3961;42.058;25.586;2022-11-20T04:06:25;11.23;;;3.27;;
7831;SDS011;3961;42.058;25.586;2022-11-20T04:08:50;12.83;;;3.53;;
7831;SDS011;3961;42.058;25.586;2022-11-20T04:11:18;13.83;;;3.03;;
7831;SDS011;3961;42.058;25.586;2022-11-20T04:13:51;11.70;;;2.90;;
7831;SDS011;3961;42.058;25.586;2022-11-20T04:16:19;8.63;;;2.83;;
7831;SDS011;3961;42.058;25.586;2022-11-20T04:18:45;12.53;;;3.20;;
7831;SDS011;3961;42.058;25.586;2022-11-20T04:21:11;12.83;;;3.50;;
7831;SDS011;3961;42.058;25.586;2022-11-20T04:23:37;17.93;;;3.90;;
7831;SDS011;3961;42.058;25.586;2022-11-20T04:26:07;12.83;;;3.47;;
7831;SDS011;3961;42.058;25.586;2022-11-20T04:28:34;16.67;;;3.97;;
7831;SDS011;3961;42.058;25.586;2022-11-20T04:31:08;11.73;;;3.53;;
7831;SDS011;3961;42.058;25.586;2022-11-20T04:33:36;13.47;;;3.10;;
7831;SDS011;3961;42.058;25.586;2022-11-20T04:36:06;11.87;;;3.20;;
7831;SDS011;3961;42.058;25.586;2022-11-20T04:38:35;13.80;;;4.00;;
7831;SDS011;3961;42.058;25.586;2022-11-20T04:41:02;12.03;;;3.40;;
7831;SDS011;3961;42.058;25.586;2022-11-20T04:43:31;13.73;;;3.00;;
7831;SDS011;3961;42.058;25.586;2022-11-20T04:45:58;14.97;;;3.83;;
7831;SDS011;3961;42.058;25.586;2022-11-20T04:48:25;12.40;;;3.60;;
7831;SDS011;3961;42.058;25.586;2022-11-20T04:50:52;12.17;;;3.03;;
7831;SDS011;3961;42.058;25.586;2022-11-20T04:53:18;16.27;;;3.70;;
7831;SDS011;3961;42.058;25.586;2022-11-20T04:55:44;15.70;;;3.97;;
7831;SDS011;3961;42.058;25.586;2022-11-20T04:58:10;11.93;;;3.27;;
7831;SDS011;3961;42.058;25.586;2022-11-20T05:00:35;12.13;;;3.23;;
7831;SDS011;3961;42.058;25.586;2022-11-20T05:03:01;11.47;;;4.00;;
7831;SDS011;3961;42.058;25.586;2022-11-20T05:05:26;21.33;;;3.63;;
7831;SDS011;3961;42.058;25.586;2022-11-20T05:07:52;13.67;;;3.87;;
7831;SDS011;3961;42.058;25.586;2022-11-20T05:10:18;13.87;;;3.43;;
7831;SDS011;3961;42.058;25.586;2022-11-20T05:12:43;13.63;;;3.60;;
7831;SDS011;3961;42.058;25.586;2022-11-20T05:15:09;22.50;;;4.40;;
7831;SDS011;3961;42.058;25.586;2022-11-20T05:17:34;10.27;;;3.20;;
7831;SDS011;3961;42.058;25.586;2022-11-20T05:20:00;14.57;;;3.80;;
7831;SDS011;3961;42.058;25.586;2022-11-20T05:22:26;16.70;;;3.50;;
7831;SDS011;3961;42.058;25.586;2022-11-20T05:24:51;11.47;;;3.30;;
7831;SDS011;3961;42.058;25.586;2022-11-20T05:27:17;16.27;;;3.33;;
7831;SDS011;3961;42.058;25.586;2022-11-20T05:29:43;12.23;;;3.40;;
7831;SDS011;3961;42.058;25.586;2022-11-20T05:32:08;14.27;;;3.97;;
7831;SDS011;3961;42.058;25.586;2022-11-20T05:34:35;13.13;;;3.70;;
7831;SDS011;3961;42.058;25.586;2022-11-20T05:37:01;10.67;;;3.20;;
7831;SDS011;3961;42.058;25.586;2022-11-20T05:39:27;16.03;;;3.63;;
7831;SDS011;3961;42.058;25.586;2022-11-20T05:41:52;17.13;;;3.63;;
7831;SDS011;3961;42.058;25.586;2022-11-20T05:44:38;8.63;;;2.70;;
7831;SDS011;3961;42.058;25.586;2022-11-20T05:47:04;17.37;;;3.67;;
7831;SDS011;3961;42.058;25.586;2022-11-20T05:49:29;14.13;;;3.03;;
7831;SDS011;3961;42.058;25.586;2022-11-20T05:51:55;14.53;;;3.50;;
7831;SDS011;3961;42.058;25.586;2022-11-20T05:54:20;14.80;;;3.73;;
7831;SDS011;3961;42.058;25.586;2022-11-20T05:56:46;12.07;;;3.53;;
7831;SDS011;3961;42.058;25.586;2022-11-20T05:59:11;11.83;;;3.23;;
7831;SDS011;3961;42.058;25.586;2022-11-20T06:01:37;11.63;;;3.87;;
7831;SDS011;3961;42.058;25.586;2022-11-20T06:04:02;17.73;;;4.40;;
7831;SDS011;3961;42.058;25.586;2022-11-20T06:06:28;14.57;;;3.67;;
7831;SDS011;3961;42.058;25.586;2022-11-20T06:08:54;11.63;;;3.50;;
7831;SDS011;3961;42.058;25.586;2022-11-20T06:11:19;10.43;;;3.33;;
7831;SDS011;3961;42.058;25.586;2022-11-20T06:13:45;14.87;;;3.67;;
7831;SDS011;3961;42.058;25.586;2022-11-20T06:16:13;14.17;;;3.63;;
7831;SDS011;3961;42.058;25.586;2022-11-20T06:18:41;11.10;;;3.60;;
7831;SDS011;3961;42.058;25.586;2022-11-20T06:21:08;14.83;;;3.70;;
7831;SDS011;3961;42.058;25.586;2022-11-20T06:23:41;9.50;;;3.37;;
7831;SDS011;3961;42.058;25.586;2022-11-20T06:26:09;9.57;;;3.20;;
7831;SDS011;3961;42.058;25.586;2022-11-20T06:28:36;18.63;;;3.50;;
7831;SDS011;3961;42.058;25.586;2022-11-20T06:31:02;13.57;;;3.83;;
7831;SDS011;3961;42.058;25.586;2022-11-20T06:33:28;16.30;;;3.67;;
7831;SDS011;3961;42.058;25.586;2022-11-20T06:36:00;11.37;;;3.60;;
7831;SDS011;3961;42.058;25.586;2022-11-20T06:38:26;17.33;;;3.90;;
7831;SDS011;3961;42.058;25.586;2022-11-20T06:40:53;17.93;;;3.83;;
7831;SDS011;3961;42.058;25.586;2022-11-20T06:43:18;15.30;;;3.23;;
7831;SDS011;3961;42.058;25.586;2022-11-20T06:45:44;15.70;;;3.57;;
7831;SDS011;3961;42.058;25.586;2022-11-20T06:48:10;14.40;;;3.93;;
7831;SDS011;3961;42.058;25.586;2022-11-20T06:50:36;15.13;;;3.77;;
7831;SDS011;3961;42.058;25.586;2022-11-20T06:53:02;8.47;;;3.43;;
7831;SDS011;3961;42.058;25.586;2022-11-20T06:55:29;11.37;;;4.27;;
7831;SDS011;3961;42.058;25.586;2022-11-20T06:57:55;15.27;;;4.13;;
7831;SDS011;3961;42.058;25.586;2022-11-20T07:00:21;16.87;;;3.43;;
7831;SDS011;3961;42.058;25.586;2022-11-20T07:02:46;18.80;;;4.40;;
7831;SDS011;3961;42.058;25.586;2022-11-20T07:05:12;13.70;;;3.43;;
7831;SDS011;3961;42.058;25.586;2022-11-20T07:07:38;16.43;;;3.67;;
7831;SDS011;3961;42.058;25.586;2022-11-20T07:10:03;16.27;;;4.37;;
7831;SDS011;3961;42.058;25.586;2022-11-20T07:12:29;18.07;;;3.97;;
7831;SDS011;3961;42.058;25.586;2022-11-20T07:14:55;14.47;;;3.40;;
7831;SDS011;3961;42.058;25.586;2022-11-20T07:17:21;15.03;;;3.60;;
7831;SDS011;3961;42.058;25.586;2022-11-20T07:19:46;12.93;;;3.40;;
7831;SDS011;3961;42.058;25.586;2022-11-20T07:22:12;17.70;;;3.67;;
7831;SDS011;3961;42.058;25.586;2022-11-20T07:24:38;14.20;;;3.70;;
7831;SDS011;3961;42.058;25.586;2022-11-20T07:27:04;10.73;;;3.13;;
7831;SDS011;3961;42.058;25.586;2022-11-20T07:29:29;15.83;;;4.13;;
7831;SDS011;3961;42.058;25.586;2022-11-20T07:31:55;10.13;;;3.20;;
7831;SDS011;3961;42.058;25.586;2022-11-20T07:34:21;14.23;;;3.53;;
7831;SDS011;3961;42.058;25.586;2022-11-20T07:36:47;14.23;;;3.57;;
7831;SDS011;3961;42.058;25.586;2022-11-20T07:39:13;14.90;;;4.07;;
7831;SDS011;3961;42.058;25.586;2022-11-20T07:41:38;13.50;;;3.80;;
7831;SDS011;3961;42.058;25.586;2022-11-20T07:44:04;11.57;;;3.50;;
7831;SDS011;3961;42.058;25.586;2022-11-20T07:46:30;15.00;;;3.80;;
7831;SDS011;3961;42.058;25.586;2022-11-20T07:48:55;13.67;;;3.83;;
7831;SDS011;3961;42.058;25.586;2022-11-20T07:51:21;18.50;;;3.77;;
7831;SDS011;3961;42.058;25.586;2022-11-20T07:53:47;15.97;;;3.40;;
7831;SDS011;3961;42.058;25.586;2022-11-20T07:56:12;18.20;;;4.23;;
7831;SDS011;3961;42.058;25.586;2022-11-20T07:58:39;15.13;;;3.53;;
7831;SDS011;3961;42.058;25.586;2022-11-20T08:01:05;11.93;;;3.40;;
7831;SDS011;3961;42.058;25.586;2022-11-20T08:03:32;15.73;;;4.57;;
7831;SDS011;3961;42.058;25.586;2022-11-20T08:06:00;16.43;;;4.07;;
7831;SDS011;3961;42.058;25.586;2022-11-20T08:08:27;14.97;;;3.57;;
7831;SDS011;3961;42.058;25.586;2022-11-20T08:10:53;12.90;;;3.37;;
7831;SDS011;3961;42.058;25.586;2022-11-20T08:13:38;13.50;;;3.90;;
7831;SDS011;3961;42.058;25.586;2022-11-20T08:16:22;13.93;;;3.67;;
7831;SDS011;3961;42.058;25.586;2022-11-20T08:18:48;14.67;;;3.83;;
7831;SDS011;3961;42.058;25.586;2022-11-20T08:21:13;15.73;;;4.07;;
7831;SDS011;3961;42.058;25.586;2022-11-20T08:23:39;21.33;;;4.10;;
7831;SDS011;3961;42.058;25.586;2022-11-20T08:26:04;17.37;;;4.10;;
7831;SDS011;3961;42.058;25.586;2022-11-20T08:28:30;16.37;;;3.80;;
7831;SDS011;3961;42.058;25.586;2022-11-20T08:31:02;15.87;;;4.20;;
7831;SDS011;3961;42.058;25.586;2022-11-20T08:33:28;12.43;;;4.50;;
7831;SDS011;3961;42.058;25.586;2022-11-20T08:35:58;17.67;;;4.40;;
7831;SDS011;3961;42.058;25.586;2022-11-20T08:38:25;16.13;;;3.50;;
7831;SDS011;3961;42.058;25.586;2022-11-20T08:40:50;13.90;;;3.80;;
7831;SDS011;3961;42.058;25.586;2022-11-20T08:43:34;20.00;;;3.67;;
7831;SDS011;3961;42.058;25.586;2022-11-20T08:46:00;10.70;;;4.33;;
7831;SDS011;3961;42.058;25.586;2022-11-20T08:48:25;10.70;;;3.97;;
7831;SDS011;3961;42.058;25.586;2022-11-20T08:50:51;19.30;;;4.80;;
7831;SDS011;3961;42.058;25.586;2022-11-20T08:53:16;18.70;;;4.47;;
7831;SDS011;3961;42.058;25.586;2022-11-20T08:55:42;13.93;;;3.20;;
7831;SDS011;3961;42.058;25.586;2022-11-20T08:58:08;17.57;;;3.70;;
7831;SDS011;3961;42.058;25.586;2022-11-20T09:00:34;18.03;;;4.87;;
7831;SDS011;3961;42.058;25.586;2022-11-20T09:03:00;22.57;;;4.20;;
7831;SDS011;3961;42.058;25.586;2022-11-20T09:05:26;23.73;;;4.80;;
7831;SDS011;3961;42.058;25.586;2022-11-20T09:07:55;28.70;;;5.53;;
7831;SDS011;3961;42.058;25.586;2022-11-20T09:10:25;23.77;;;4.17;;
7831;SDS011;3961;42.058;25.586;2022-11-20T09:12:51;26.10;;;4.40;;
7831;SDS011;3961;42.058;25.586;2022-11-20T09:15:17;19.90;;;4.40;;
7831;SDS011;3961;42.058;25.586;2022-11-20T09:17:56;24.83;;;4.53;;
7831;SDS011;3961;42.058;25.586;2022-11-20T09:20:30;20.07;;;3.80;;
7831;SDS011;3961;42.058;25.586;2022-11-20T09:22:56;22.27;;;4.40;;
7831;SDS011;3961;42.058;25.586;2022-11-20T09:25:22;21.20;;;4.53;;
7831;SDS011;3961;42.058;25.586;2022-11-20T09:27:54;21.13;;;4.20;;
7831;SDS011;3961;42.058;25.586;2022-11-20T09:30:20;23.30;;;4.30;;
7831;SDS011;3961;42.058;25.586;2022-11-20T09:32:46;16.67;;;4.17;;
7831;SDS011;3961;42.058;25.586;2022-11-20T09:35:11;20.93;;;4.17;;
7831;SDS011;3961;42.058;25.586;2022-11-20T09:37:37;19.70;;;4.00;;
7831;SDS011;3961;42.058;25.586;2022-11-20T09:40:03;18.30;;;4.63;;
7831;SDS011;3961;42.058;25.586;2022-11-20T09:42:54;18.37;;;4.00;;
7831;SDS011;3961;42.058;25.586;2022-11-20T09:56:15;23.77;;;4.77;;
7831;SDS011;3961;42.058;25.586;2022-11-20T09:58:43;28.20;;;4.90;;
7831;SDS011;3961;42.058;25.586;2022-11-20T10:01:15;25.47;;;5.43;;
7831;SDS011;3961;42.058;25.586;2022-11-20T10:06:33;25.23;;;5.33;;
7831;SDS011;3961;42.058;25.586;2022-11-20T10:14:13;28.97;;;5.03;;
7831;SDS011;3961;42.058;25.586;2022-11-20T10:17:00;19.40;;;5.47;;
7831;SDS011;3961;42.058;25.586;2022-11-20T10:31:32;28.70;;;5.80;;
7831;SDS011;3961;42.058;25.586;2022-11-20T10:34:04;40.17;;;6.07;;
7831;SDS011;3961;42.058;25.586;2022-11-20T10:36:55;25.60;;;5.43;;
7831;SDS011;3961;42.058;25.586;2022-11-20T10:39:28;25.70;;;4.40;;
7831;SDS011;3961;42.058;25.586;2022-11-20T10:42:00;25.53;;;4.97;;
7831;SDS011;3961;42.058;25.586;2022-11-20T10:44:27;32.90;;;4.80;;
7831;SDS011;3961;42.058;25.586;2022-11-20T10:47:16;26.57;;;6.07;;
7831;SDS011;3961;42.058;25.586;2022-11-20T10:49:43;34.20;;;5.57;;
7831;SDS011;3961;42.058;25.586;2022-11-20T10:52:17;32.17;;;5.60;;
7831;SDS011;3961;42.058;25.586;2022-11-20T11:00:07;32.30;;;5.60;;
7831;SDS011;3961;42.058;25.586;2022-11-20T11:02:39;24.90;;;4.77;;
7831;SDS011;3961;42.058;25.586;2022-11-20T11:07:53;28.53;;;4.60;;
7831;SDS011;3961;42.058;25.586;2022-11-20T11:13:18;26.93;;;5.57;;
7831;SDS011;3961;42.058;25.586;2022-11-20T11:15:46;30.90;;;4.80;;
7831;SDS011;3961;42.058;25.586;2022-11-20T11:18:11;26.40;;;5.67;;
7831;SDS011;3961;42.058;25.586;2022-11-20T11:20:52;27.83;;;5.30;;
7831;SDS011;3961;42.058;25.586;2022-11-20T11:25:59;26.83;;;4.87;;
7831;SDS011;3961;42.058;25.586;2022-11-20T11:28:26;29.30;;;4.93;;
7831;SDS011;3961;42.058;25.586;2022-11-20T11:30:53;28.40;;;5.20;;
7831;SDS011;3961;42.058;25.586;2022-11-20T11:33:26;31.03;;;6.30;;
7831;SDS011;3961;42.058;25.586;2022-11-20T11:35:59;30.13;;;5.20;;
7831;SDS011;3961;42.058;25.586;2022-11-20T11:38:36;26.00;;;5.80;;
7831;SDS011;3961;42.058;25.586;2022-11-20T11:41:06;27.13;;;5.87;;
7831;SDS011;3961;42.058;25.586;2022-11-20T11:43:35;34.50;;;5.13;;
7831;SDS011;3961;42.058;25.586;2022-11-20T11:46:24;29.23;;;5.17;;
7831;SDS011;3961;42.058;25.586;2022-11-20T11:54:31;41.17;;;5.80;;
7831;SDS011;3961;42.058;25.586;2022-11-20T11:57:03;30.57;;;5.57;;
7831;SDS011;3961;42.058;25.586;2022-11-20T12:02:03;26.20;;;5.53;;
7831;SDS011;3961;42.058;25.586;2022-11-20T12:04:44;36.90;;;5.83;;
7831;SDS011;3961;42.058;25.586;2022-11-20T12:07:19;36.87;;;6.33;;
7831;SDS011;3961;42.058;25.586;2022-11-20T12:09:49;29.07;;;5.47;;
7831;SDS011;3961;42.058;25.586;2022-11-20T12:12:30;34.67;;;5.93;;
7831;SDS011;3961;42.058;25.586;2022-11-20T12:15:01;41.70;;;6.07;;
7831;SDS011;3961;42.058;25.586;2022-11-20T12:17:29;26.67;;;5.67;;
7831;SDS011;3961;42.058;25.586;2022-11-20T12:19:54;30.93;;;5.67;;
7831;SDS011;3961;42.058;25.586;2022-11-20T12:22:30;28.93;;;5.40;;
7831;SDS011;3961;42.058;25.586;2022-11-20T12:25:17;36.20;;;7.53;;
7831;SDS011;3961;42.058;25.586;2022-11-20T12:30:36;28.67;;;6.00;;
7831;SDS011;3961;42.058;25.586;2022-11-20T12:38:58;35.43;;;5.47;;
7831;SDS011;3961;42.058;25.586;2022-11-20T12:42:05;30.37;;;5.30;;
7831;SDS011;3961;42.058;25.586;2022-11-20T12:57:01;27.07;;;5.27;;
7831;SDS011;3961;42.058;25.586;2022-11-20T13:02:25;24.33;;;4.83;;
7831;SDS011;3961;42.058;25.586;2022-11-20T13:07:25;25.30;;;5.67;;
7831;SDS011;3961;42.058;25.586;2022-11-20T13:09:53;35.57;;;6.13;;
7831;SDS011;3961;42.058;25.586;2022-11-20T13:12:33;37.07;;;5.77;;
7831;SDS011;3961;42.058;25.586;2022-11-20T13:17:59;29.80;;;5.60;;
7831;SDS011;3961;42.058;25.586;2022-11-20T13:20:26;29.87;;;6.13;;
7831;SDS011;3961;42.058;25.586;2022-11-20T13:22:53;42.77;;;6.00;;
7831;SDS011;3961;42.058;25.586;2022-11-20T13:25:24;38.17;;;5.77;;
7831;SDS011;3961;42.058;25.586;2022-11-20T13:27:53;34.17;;;6.07;;
7831;SDS011;3961;42.058;25.586;2022-11-20T13:30:20;30.63;;;5.43;;
7831;SDS011;3961;42.058;25.586;2022-11-20T13:33:06;32.27;;;5.60;;
7831;SDS011;3961;42.058;25.586;2022-11-20T13:35:35;37.17;;;5.27;;
7831;SDS011;3961;42.058;25.586;2022-11-20T13:38:06;25.23;;;5.37;;
7831;SDS011;3961;42.058;25.586;2022-11-20T13:40:32;37.53;;;5.40;;
7831;SDS011;3961;42.058;25.586;2022-11-20T13:43:07;34.63;;;6.03;;
7831;SDS011;3961;42.058;25.586;2022-11-20T13:45:41;34.33;;;6.80;;
7831;SDS011;3961;42.058;25.586;2022-11-20T13:48:22;44.17;;;6.30;;
7831;SDS011;3961;42.058;25.586;2022-11-20T13:58:45;32.90;;;5.50;;
7831;SDS011;3961;42.058;25.586;2022-11-20T14:01:17;44.07;;;7.33;;
7831;SDS011;3961;42.058;25.586;2022-11-20T14:03:44;44.63;;;6.77;;
7831;SDS011;3961;42.058;25.586;2022-11-20T14:06:29;36.20;;;7.07;;
7831;SDS011;3961;42.058;25.586;2022-11-20T14:08:57;39.27;;;6.30;;
7831;SDS011;3961;42.058;25.586;2022-11-20T14:11:28;44.40;;;7.90;;
7831;SDS011;3961;42.058;25.586;2022-11-20T14:14:02;49.80;;;7.73;;
7831;SDS011;3961;42.058;25.586;2022-11-20T14:16:31;39.03;;;6.63;;
7831;SDS011;3961;42.058;25.586;2022-11-20T14:21:47;31.03;;;5.57;;
7831;SDS011;3961;42.058;25.586;2022-11-20T14:24:13;34.20;;;6.83;;
7831;SDS011;3961;42.058;25.586;2022-11-20T14:26:43;38.23;;;6.23;;
7831;SDS011;3961;42.058;25.586;2022-11-20T14:29:13;32.53;;;6.13;;
7831;SDS011;3961;42.058;25.586;2022-11-20T14:31:41;40.27;;;7.53;;
7831;SDS011;3961;42.058;25.586;2022-11-20T14:34:18;30.17;;;7.17;;
7831;SDS011;3961;42.058;25.586;2022-11-20T14:36:46;46.10;;;7.10;;
7831;SDS011;3961;42.058;25.586;2022-11-20T14:39:22;39.60;;;8.07;;
7831;SDS011;3961;42.058;25.586;2022-11-20T14:41:54;42.77;;;7.63;;
7831;SDS011;3961;42.058;25.586;2022-11-20T14:44:21;32.47;;;5.87;;
7831;SDS011;3961;42.058;25.586;2022-11-20T14:46:52;41.87;;;7.63;;
7831;SDS011;3961;42.058;25.586;2022-11-20T14:49:18;26.50;;;6.27;;
7831;SDS011;3961;42.058;25.586;2022-11-20T14:51:45;43.93;;;6.40;;
7831;SDS011;3961;42.058;25.586;2022-11-20T14:54:12;43.17;;;6.33;;
7831;SDS011;3961;42.058;25.586;2022-11-20T14:56:40;45.23;;;7.00;;
7831;SDS011;3961;42.058;25.586;2022-11-20T14:59:07;38.40;;;7.17;;
7831;SDS011;3961;42.058;25.586;2022-11-20T15:01:34;36.63;;;7.03;;
7831;SDS011;3961;42.058;25.586;2022-11-20T15:04:08;42.93;;;7.93;;
7831;SDS011;3961;42.058;25.586;2022-11-20T15:06:36;37.23;;;7.00;;
7831;SDS011;3961;42.058;25.586;2022-11-20T15:09:03;51.60;;;7.17;;
7831;SDS011;3961;42.058;25.586;2022-11-20T15:11:34;39.03;;;6.60;;
7831;SDS011;3961;42.058;25.586;2022-11-20T15:14:04;43.83;;;7.93;;
7831;SDS011;3961;42.058;25.586;2022-11-20T15:16:32;41.00;;;7.07;;
7831;SDS011;3961;42.058;25.586;2022-11-20T15:18:58;39.60;;;8.10;;
7831;SDS011;3961;42.058;25.586;2022-11-20T15:21:25;32.63;;;6.53;;
7831;SDS011;3961;42.058;25.586;2022-11-20T15:23:50;47.50;;;8.53;;
7831;SDS011;3961;42.058;25.586;2022-11-20T15:26:23;58.50;;;8.47;;
7831;SDS011;3961;42.058;25.586;2022-11-20T15:28:51;36.93;;;6.93;;
7831;SDS011;3961;42.058;25.586;2022-11-20T15:31:18;44.40;;;7.13;;
7831;SDS011;3961;42.058;25.586;2022-11-20T15:33:47;43.00;;;7.77;;
7831;SDS011;3961;42.058;25.586;2022-11-20T15:36:13;46.87;;;8.27;;
7831;SDS011;3961;42.058;25.586;2022-11-20T15:38:39;42.23;;;7.27;;
7831;SDS011;3961;42.058;25.586;2022-11-20T15:41:05;48.77;;;8.37;;
7831;SDS011;3961;42.058;25.586;2022-11-20T15:43:31;44.57;;;7.30;;
7831;SDS011;3961;42.058;25.586;2022-11-20T15:45:59;38.83;;;7.67;;
7831;SDS011;3961;42.058;25.586;2022-11-20T15:48:31;40.60;;;8.00;;
7831;SDS011;3961;42.058;25.586;2022-11-20T15:51:12;41.57;;;7.80;;
7831;SDS011;3961;42.058;25.586;2022-11-20T15:53:47;40.27;;;7.37;;
7831;SDS011;3961;42.058;25.586;2022-11-20T15:56:13;54.40;;;9.03;;
7831;SDS011;3961;42.058;25.586;2022-11-20T15:58:39;45.67;;;7.80;;
7831;SDS011;3961;42.058;25.586;2022-11-20T16:01:09;48.90;;;8.03;;
7831;SDS011;3961;42.058;25.586;2022-11-20T16:03:37;42.47;;;8.47;;
7831;SDS011;3961;42.058;25.586;2022-11-20T16:06:02;45.87;;;8.33;;
7831;SDS011;3961;42.058;25.586;2022-11-20T16:08:28;38.17;;;7.97;;
7831;SDS011;3961;42.058;25.586;2022-11-20T16:10:53;56.23;;;9.13;;
7831;SDS011;3961;42.058;25.586;2022-11-20T16:13:19;45.90;;;8.07;;
7831;SDS011;3961;42.058;25.586;2022-11-20T16:16:19;44.13;;;7.60;;
7831;SDS011;3961;42.058;25.586;2022-11-20T16:18:48;47.67;;;8.77;;
7831;SDS011;3961;42.058;25.586;2022-11-20T16:21:14;44.97;;;9.27;;
7831;SDS011;3961;42.058;25.586;2022-11-20T16:23:40;41.47;;;8.47;;
7831;SDS011;3961;42.058;25.586;2022-11-20T16:26:11;38.37;;;8.53;;
7831;SDS011;3961;42.058;25.586;2022-11-20T16:28:38;47.90;;;8.70;;
7831;SDS011;3961;42.058;25.586;2022-11-20T16:31:13;52.87;;;9.03;;
7831;SDS011;3961;42.058;25.586;2022-11-20T16:33:40;41.77;;;7.63;;
7831;SDS011;3961;42.058;25.586;2022-11-20T16:36:07;48.03;;;8.40;;
7831;SDS011;3961;42.058;25.586;2022-11-20T16:38:34;48.67;;;8.97;;